Flight Track Log - Related Links

Times and Time Zones

All times are in EDT time to prevent confusion due to time zone crossing. See the SKW6345 flight status page for this flight to view local times or setup timezone preferences in your user account.

Time Position Orientation Groundspeed Altitude Reporting Facility
EDT Latitude Longitude Course Direction KTS MPH feet Rate Location/Type
Sat 11:13:53 AM 37.6333 -122.3667 38° Northeast 164 189 1,000  Level Northern Cal TRACON
Sat 11:14:48 AM 37.6833 -122.3333 28° Northeast 216 249 2,800 2,158 Climbing Northern Cal TRACON
Sat 11:15:47 AM 37.7333 -122.3000 28° Northeast 254 292 5,100 2,130 Climbing Northern Cal TRACON
Sat 11:16:00 AM 37.6323 -122.4176 120° Southeast  Level FlightAware Approximate
Sat 11:17:00 AM 37.6846 -122.2988 38° Northeast  Level FlightAware Approximate
Sat 11:18:00 AM 37.7875 -122.1958 38° Northeast  Level FlightAware Approximate
Sat 11:18:08 AM 37.8825 -122.1864 31° Northeast 285 328 9,900  Level Oakland Center
Sat 11:19:00 AM 37.8905 -122.0929 38° Northeast  Level FlightAware Approximate
Sat 11:19:09 AM 37.9458 -122.1131 42° Northeast 307 353 11,600  Level Oakland Center
Sat 11:20:10 AM 38.0161 -122.0347 41° Northeast 334 384 13,300 1,610 Climbing Oakland Center
Sat 11:21:12 AM 38.0875 -121.9558 41° Northeast 341 392 14,900 1,659 Climbing Oakland Center
Sat 11:22:13 AM 38.1758 -121.8558 42° Northeast 356 410 16,700 1,672 Climbing Oakland Center
Sat 11:23:14 AM 38.2503 -121.7697 42° Northeast 363 418 18,300 1,377 Climbing Oakland Center
Sat 11:24:15 AM 38.3253 -121.6806 43° Northeast 370 426 19,500 1,131 Climbing Oakland Center
Sat 11:25:16 AM 38.4028 -121.5894 43° Northeast 379 436 20,600 1,131 Climbing Oakland Center
Sat 11:26:17 AM 38.4853 -121.4919 43° Northeast 383 441 21,800 1,073 Climbing Oakland Center
Sat 11:27:19 AM 38.5594 -121.4017 44° Northeast 391 450 22,800 878 Climbing Oakland Center
Sat 11:28:20 AM 38.6403 -121.3075 42° Northeast 398 458 23,600 984 Climbing Oakland Center
Sat 11:29:21 AM 38.7342 -121.1939 43° Northeast 406 467 24,800 1,033 Climbing Oakland Center
Sat 11:30:22 AM 38.8172 -121.0936 43° Northeast 407 468 25,700 829 Climbing Oakland Center
Sat 11:31:24 AM 38.9017 -120.9919 43° Northeast 412 474 26,500 732 Climbing Oakland Center
Sat 11:32:25 AM 38.9856 -120.8892 44° Northeast 416 479 27,200 639 Climbing Oakland Center
Sat 11:33:26 AM 39.0728 -120.7825 43° Northeast 426 490 27,800 541 Climbing Oakland Center
Sat 11:34:27 AM 39.1611 -120.6767 43° Northeast 431 496 28,300 585 Climbing Oakland Center
Sat 11:35:29 AM 39.2483 -120.5675 44° Northeast 436 502 29,000 585 Climbing Oakland Center
Sat 11:36:30 AM 39.3372 -120.4583 44° Northeast 439 505 29,500 492 Climbing Oakland Center
Sat 11:37:31 AM 39.4261 -120.3478 44° Northeast 442 509 30,000 541 Climbing Oakland Center
Sat 11:38:32 AM 39.5158 -120.2344 44° Northeast 448 516 30,600 537 Climbing Oakland Center
Sat 11:39:34 AM 39.6136 -120.1139 44° Northeast 458 527 31,100 488 Climbing Oakland Center
Sat 11:40:35 AM 39.7058 -119.9989 44° Northeast 458 527 31,600 492 Climbing Oakland Center
Sat 11:41:36 AM 39.7953 -119.8853 44° Northeast 452 520 32,100 492 Climbing Oakland Center
Sat 11:42:37 AM 39.8853 -119.7719 44° Northeast 448 516 32,600 443 Climbing Oakland Center
Sat 11:43:38 AM 39.9958 -119.6317 44° Northeast 458 527 33,000 195 Climbing Oakland Center
Sat 11:44:40 AM 40.0878 -119.5150 44° Northeast 458 527 33,000  Level Oakland Center
Sat 11:45:41 AM 40.1811 -119.3956 44° Northeast 464 534 33,000  Level Oakland Center
Sat 11:46:42 AM 40.2742 -119.2750 45° Northeast 469 540 33,000  Level Oakland Center
Sat 11:47:43 AM 40.3697 -119.1531 44° Northeast 476 548 33,000  Level Oakland Center
Sat 11:48:45 AM 40.4658 -119.0281 45° Northeast 483 556 33,000  Level Oakland Center
Sat 11:49:46 AM 40.5606 -118.9042 45° Northeast 480 552 33,000  Level Oakland Center
Sat 11:50:47 AM 40.6539 -118.7833 44° Northeast 473 544 33,000  Level Oakland Center
Sat 11:51:12 AM 40.6906 -118.7344 45° Northeast 472 543 33,000  Level Salt Lake Center
Sat 11:52:14 AM 40.7942 -118.6000 44° Northeast 468 539 33,000  Level Salt Lake Center
Sat 11:53:16 AM 40.8828 -118.4833 45° Northeast 468 539 33,000  Level Salt Lake Center
Sat 11:54:18 AM 40.9847 -118.3492 45° Northeast 464 534 33,000  Level Salt Lake Center
Sat 11:55:21 AM 41.0711 -118.2342 45° Northeast 461 531 33,000  Level Salt Lake Center
Sat 11:56:23 AM 41.1572 -118.1194 45° Northeast 459 528 33,000  Level Salt Lake Center
Sat 11:57:25 AM 41.2569 -117.9861 45° Northeast 455 524 33,000  Level Salt Lake Center
Sat 11:58:27 AM 41.3422 -117.8708 45° Northeast 455 524 33,000  Level Salt Lake Center
Sat 11:59:29 AM 41.4400 -117.7381 45° Northeast 451 519 33,000  Level Salt Lake Center
Sat 12:00:31 PM 41.5244 -117.6253 45° Northeast 449 517 33,000  Level Salt Lake Center
Sat 12:01:33 PM 41.6214 -117.4911 46° Northeast 448 516 33,000  Level Salt Lake Center
Sat 12:02:35 PM 41.7047 -117.3769 46° Northeast 447 514 33,000  Level Salt Lake Center
Sat 12:03:37 PM 41.8025 -117.2378 47° Northeast 451 519 33,000  Level Salt Lake Center
Sat 12:04:39 PM 41.8856 -117.1250 45° Northeast 444 511 33,000  Level Salt Lake Center
Sat 12:05:41 PM 41.9683 -117.0097 46° Northeast 446 513 33,000  Level Salt Lake Center
Sat 12:06:43 PM 42.0653 -116.8742 46° Northeast 449 517 33,000  Level Salt Lake Center
Sat 12:07:45 PM 42.1478 -116.7583 46° Northeast 447 514 33,000  Level Salt Lake Center
Sat 12:08:47 PM 42.2381 -116.6311 46° Northeast 450 518 33,000  Level Salt Lake Center
Sat 12:09:49 PM 42.3347 -116.4947 46° Northeast 450 518 33,000  Level Salt Lake Center
Sat 12:10:51 PM 42.4181 -116.3775 46° Northeast 452 520 33,000  Level Salt Lake Center
Sat 12:11:53 PM 42.5153 -116.2389 46° Northeast 455 524 33,000  Level Salt Lake Center
Sat 12:12:55 PM 42.5975 -116.1208 47° Northeast 451 519 33,000  Level Salt Lake Center
Sat 12:13:57 PM 42.6947 -115.9814 46° Northeast 454 522 33,000  Level Salt Lake Center
Sat 12:14:59 PM 42.7775 -115.8617 47° Northeast 454 522 33,000  Level Salt Lake Center
Sat 12:16:01 PM 42.8742 -115.7206 47° Northeast 456 525 33,000  Level Salt Lake Center
Sat 12:17:03 PM 42.9586 -115.6006 46° Northeast 459 528 33,000  Level Salt Lake Center
Sat 12:18:05 PM 43.0550 -115.4592 47° Northeast 457 526 33,000  Level Salt Lake Center
Sat 12:19:07 PM 43.1381 -115.3367 47° Northeast 459 528 33,000  Level Salt Lake Center
Sat 12:20:09 PM 43.2342 -115.1947 47° Northeast 457 526 33,000  Level Salt Lake Center
Sat 12:21:11 PM 43.3175 -115.0717 47° Northeast 460 529 33,000  Level Salt Lake Center
Sat 12:22:13 PM 43.4133 -114.9294 47° Northeast 456 525 33,000  Level Salt Lake Center
Sat 12:23:15 PM 43.4961 -114.8056 47° Northeast 460 529 33,000  Level Salt Lake Center
Sat 12:24:17 PM 43.5789 -114.6817 47° Northeast 459 528 33,000  Level Salt Lake Center
Sat 12:25:19 PM 43.6747 -114.5356 48° Northeast 461 531 33,000  Level Salt Lake Center
Sat 12:26:22 PM 43.7575 -114.4117 47° Northeast 459 528 33,000  Level Salt Lake Center
Sat 12:27:23 PM 43.8536 -114.2639 48° Northeast 463 533 33,000  Level Salt Lake Center
Sat 12:28:25 PM 43.9358 -114.1389 48° Northeast 459 528 33,000  Level Salt Lake Center
Sat 12:29:27 PM 44.0303 -113.9908 48° Northeast 459 528 33,000  Level Salt Lake Center
Sat 12:30:29 PM 44.1153 -113.8539 49° Northeast 459 528 33,000  Level Salt Lake Center
Sat 12:31:31 PM 44.1992 -113.7272 47° Northeast 462 532 33,000  Level Salt Lake Center
Sat 12:32:33 PM 44.2953 -113.5772 48° Northeast 465 535 33,000  Level Salt Lake Center
Sat 12:33:35 PM 44.3753 -113.4478 49° Northeast 461 531 33,000  Level Salt Lake Center
Sat 12:34:37 PM 44.4722 -113.2981 48° Northeast 463 533 33,000  Level Salt Lake Center
Sat 12:35:39 PM 44.5536 -113.1689 48° Northeast 462 532 33,000  Level Salt Lake Center
Sat 12:36:41 PM 44.6481 -113.0175 49° Northeast 462 532 33,000  Level Salt Lake Center
Sat 12:37:43 PM 44.7286 -112.8867 49° Northeast 462 532 33,000  Level Salt Lake Center
Sat 12:38:45 PM 44.8233 -112.7361 48° Northeast 460 529 33,000  Level Salt Lake Center
Sat 12:39:47 PM 44.9039 -112.6044 49° Northeast 462 532 33,000  Level Salt Lake Center
Sat 12:40:49 PM 44.9844 -112.4731 49° Northeast 462 532 33,000 -726 Level Salt Lake Center
Sat 12:41:51 PM 45.0792 -112.3203 49° Northeast 460 529 31,500 -2,419 Descending Salt Lake Center
Sat 12:42:53 PM 45.1614 -112.1869 49° Northeast 466 536 28,000 -3,387 Descending Salt Lake Center
Sat 12:43:55 PM 45.2461 -112.0447 50° Northeast 465 535 24,500 -3,387 Descending Salt Lake Center
Sat 12:44:57 PM 45.3264 -111.9111 49° Northeast 450 518 21,000 -3,220 Descending Salt Lake Center
Sat 12:45:58 PM 45.4058 -111.7792 49° Northeast 441 507 17,900 -3,366 Descending Salt Lake Center
Sat 12:47:00 PM 45.5078 -111.6500 42° Northeast 405 466 14,100 -2,855 Descending Salt Lake Center
Sat 12:48:02 PM 45.5908 -111.5592 37° Northeast 383 441 12,000 -1,016 Descending Salt Lake Center
Sat 12:49:04 PM 45.6622 -111.4836 36° Northeast 342 394 12,000  Level Salt Lake Center
Sat 12:50:06 PM 45.7267 -111.4133 37° Northeast 308 354 12,000  Level Salt Lake Center

Login

Don't have an account? Register now (free) for customized features, flight alerts, and more!